Time;durP1;ratioP1;P1;durP2;ratioP2;P2;SDS_P1;SDS_P2;PMS_P1;PMS_P2;Temp;Humidity;BMP_temperature;BMP_pressure;BME280_temperature;BME280_humidity;BME280_pressure;Samples;Min_cycle;Max_cycle;Signal;HPM_P1;HPM_P2
2022/06/05 00:02:44;;;;;;;7.28;3.38;;;15.70;99.90;;;;;;5052621;28;20099;-35
2022/06/05 00:05:48;;;;;;;9.35;4.03;;;15.60;99.90;;;;;;5031974;28;20041;-32
2022/06/05 00:08:17;;;;;;;6.00;4.13;;;15.60;99.90;;;;;;5041742;28;20033;-29
2022/06/05 00:10:54;;;;;;;9.80;3.90;;;15.60;99.90;;;;;;5035401;28;20386;-28
2022/06/05 00:13:37;;;;;;;8.13;3.70;;;15.50;99.90;;;;;;5033444;28;20024;-31
2022/06/05 00:16:03;;;;;;;5.80;3.80;;;15.40;99.90;;;;;;5038939;28;20504;-28
2022/06/05 00:18:33;;;;;;;11.40;3.83;;;15.50;99.90;;;;;;5044362;28;20035;-32
2022/06/05 00:20:59;;;;;;;9.45;4.40;;;15.40;99.90;;;;;;5046090;28;20393;-34
2022/06/05 00:23:24;;;;;;;12.88;3.95;;;15.40;99.90;;;;;;5035204;28;20018;-29
2022/06/05 00:25:53;;;;;;;12.00;4.00;;;15.40;99.90;;;;;;5037133;28;20029;-30
2022/06/05 00:28:43;;;;;;;7.00;4.00;;;15.40;99.90;;;;;;5051825;28;20495;-28
2022/06/05 00:31:17;;;;;;;12.55;3.85;;;15.40;99.90;;;;;;5050604;28;20032;-29
2022/06/05 00:33:43;;;;;;;9.35;3.65;;;15.30;99.90;;;;;;5038425;28;20037;-29
2022/06/05 00:36:30;;;;;;;10.07;3.78;;;15.40;99.90;;;;;;5033752;28;20537;-43
2022/06/05 00:39:07;;;;;;;6.70;4.10;;;15.40;99.90;;;;;;5037086;28;20033;-29
2022/06/05 00:41:54;;;;;;;7.55;4.05;;;15.30;99.90;;;;;;5033079;28;20037;-28
2022/06/05 00:44:43;;;;;;;9.65;3.78;;;15.30;99.90;;;;;;5034615;28;20060;-30
2022/06/05 00:47:13;;;;;;;6.55;3.72;;;15.20;99.90;;;;;;5033066;28;20555;-36
2022/06/05 00:49:47;;;;;;;6.57;4.05;;;15.20;99.90;;;;;;5038443;28;20024;-31
2022/06/05 00:52:15;;;;;;;8.77;4.05;;;15.30;99.90;;;;;;5039304;28;20029;-36
2022/06/05 00:54:41;;;;;;;;;;;15.30;99.90;;;;;;5035854;28;20482;-35
2022/06/05 00:57:09;;;;;;;9.23;3.83;;;15.30;99.90;;;;;;5031335;28;19927;-34
2022/06/05 00:59:36;;;;;;;5.65;4.13;;;15.30;99.90;;;;;;5045847;28;20447;-35
2022/06/05 01:02:02;;;;;;;9.87;4.97;;;15.30;99.90;;;;;;5032818;28;20055;-35
2022/06/05 01:04:29;;;;;;;11.20;4.18;;;15.30;99.90;;;;;;5045907;28;20060;-35
2022/06/05 01:06:56;;;;;;;9.35;4.22;;;15.20;99.90;;;;;;5052480;28;20473;-36
2022/06/05 01:09:21;;;;;;;7.88;4.20;;;15.20;99.90;;;;;;5041402;28;20053;-52
2022/06/05 01:12:05;;;;;;;9.73;4.13;;;15.20;99.90;;;;;;5042264;28;20057;-36
2022/06/05 01:14:57;;;;;;;7.20;4.22;;;15.20;99.90;;;;;;5034174;28;20037;-43
2022/06/05 01:17:31;;;;;;;9.38;3.45;;;15.20;99.90;;;;;;5043619;28;20124;-35
2022/06/05 01:20:28;;;;;;;7.88;4.38;;;15.20;99.90;;;;;;5052157;28;20070;-41
2022/06/05 01:23:13;;;;;;;7.85;3.90;;;15.20;99.90;;;;;;5042500;28;20029;-35
2022/06/05 01:25:47;;;;;;;7.95;3.90;;;15.10;99.90;;;;;;5046619;28;20040;-36
2022/06/05 01:28:23;;;;;;;5.88;4.03;;;15.10;99.90;;;;;;5040330;28;20094;-36
2022/06/05 01:31:20;;;;;;;4.70;3.90;;;15.00;99.90;;;;;;5037313;28;20025;-30
2022/06/05 01:34:19;;;;;;;8.00;3.85;;;15.10;99.90;;;;;;5030349;28;20046;-35
2022/06/05 01:37:04;;;;;;;7.70;4.82;;;15.10;99.90;;;;;;5042893;28;20029;-40
2022/06/05 01:39:49;;;;;;;8.65;4.55;;;15.00;99.90;;;;;;5035771;28;20025;-36
2022/06/05 01:42:23;;;;;;;6.13;4.40;;;15.00;99.90;;;;;;5039176;28;20028;-35
2022/06/05 01:44:54;;;;;;;8.90;3.97;;;15.00;99.90;;;;;;5049680;28;20024;-36
2022/06/05 01:47:25;;;;;;;6.75;4.30;;;15.00;99.90;;;;;;5037123;28;20029;-39
2022/06/05 01:49:57;;;;;;;5.28;3.95;;;15.00;99.90;;;;;;5043480;28;20040;-36
2022/06/05 01:52:31;;;;;;;4.50;3.70;;;15.00;99.90;;;;;;5053683;28;20504;-35
2022/06/05 01:55:08;;;;;;;9.43;4.60;;;15.10;99.90;;;;;;5046812;28;20493;-36
2022/06/05 01:57:35;;;;;;;7.05;4.35;;;15.10;99.90;;;;;;5053519;28;20489;-35
2022/06/05 02:00:12;;;;;;;6.70;3.35;;;15.10;99.90;;;;;;5049207;28;20473;-37
2022/06/05 02:02:48;;;;;;;5.82;4.40;;;15.10;99.90;;;;;;5047651;28;20063;-36
2022/06/05 02:08:15;;;;;;;4.60;3.97;;;15.10;99.90;;;;;;5049311;28;20102;-71
2022/06/05 02:11:18;;;;;;;6.78;4.18;;;15.20;99.90;;;;;;5053822;28;20116;-40
2022/06/05 02:13:43;;;;;;;9.77;4.22;;;15.20;99.90;;;;;;5041408;28;20429;-35
2022/06/05 02:16:09;;;;;;;5.22;4.45;;;15.20;99.90;;;;;;5043801;28;20080;-35
2022/06/05 02:18:35;;;;;;;8.98;4.18;;;15.20;99.90;;;;;;5039715;28;20159;-35
2022/06/05 02:21:02;;;;;;;8.05;4.50;;;15.20;99.90;;;;;;5048044;28;20021;-33
2022/06/05 02:23:32;;;;;;;10.43;4.47;;;15.10;99.90;;;;;;5038497;28;20083;-37
2022/06/05 02:25:59;;;;;;;7.10;3.65;;;15.20;99.90;;;;;;5043752;28;20114;-66
2022/06/05 02:28:25;;;;;;;6.30;4.40;;;15.20;99.90;;;;;;5042208;28;20049;-35
2022/06/05 02:31:07;;;;;;;10.73;4.35;;;15.30;99.90;;;;;;5055463;28;20056;-43
2022/06/05 02:34:07;;;;;;;9.60;4.68;;;15.30;99.90;;;;;;5048324;28;20496;-35
2022/06/05 02:37:05;;;;;;;9.45;3.75;;;15.30;99.90;;;;;;5048261;28;20108;-35
2022/06/05 02:40:01;;;;;;;8.68;4.15;;;15.30;99.90;;;;;;5034995;28;20033;-35
2022/06/05 02:42:34;;;;;;;6.68;5.07;;;15.30;99.90;;;;;;5050148;28;20029;-32
2022/06/05 02:45:09;;;;;;;9.07;4.72;;;15.20;99.90;;;;;;5037996;28;20470;-33
2022/06/05 02:47:53;;;;;;;8.43;4.82;;;15.20;99.90;;;;;;5055905;28;20033;-31
2022/06/05 02:50:34;;;;;;;7.68;4.00;;;15.20;99.90;;;;;;5045193;28;20030;-28
2022/06/05 02:53:03;;;;;;;5.53;4.03;;;15.20;99.90;;;;;;5048098;28;20469;-28
2022/06/05 02:55:29;;;;;;;6.75;4.53;;;15.30;99.90;;;;;;5040323;28;20021;-27
2022/06/05 02:57:56;;;;;;;5.25;4.20;;;15.20;99.90;;;;;;5037142;28;20033;-30
2022/06/05 03:00:28;;;;;;;11.25;4.95;;;15.20;99.90;;;;;;5048105;28;20034;-30
2022/06/05 03:05:39;;;;;;;6.93;4.07;;;15.20;99.90;;;;;;5054472;28;20040;-31
2022/06/05 03:08:07;;;;;;;13.43;5.82;;;15.10;99.90;;;;;;5053652;28;20029;-34
2022/06/05 03:10:32;;;;;;;11.82;4.72;;;15.00;99.90;;;;;;5047660;28;20057;-29
2022/06/05 03:13:01;;;;;;;13.95;4.63;;;15.00;99.90;;;;;;5046015;28;20500;-29
2022/06/05 03:15:28;;;;;;;10.07;5.50;;;15.00;99.90;;;;;;5051350;28;20118;-34
2022/06/05 03:17:53;;;;;;;10.50;5.20;;;15.00;99.90;;;;;;5049460;28;20045;-31
2022/06/05 03:20:19;;;;;;;22.23;5.32;;;14.90;99.90;;;;;;5044159;28;20378;-32
2022/06/05 03:22:45;;;;;;;9.25;5.07;;;14.90;99.90;;;;;;5044610;28;20033;-27
2022/06/05 03:25:16;;;;;;;10.80;4.82;;;14.90;99.90;;;;;;5041140;28;20548;-30
2022/06/05 03:27:41;;;;;;;12.13;5.18;;;14.80;99.90;;;;;;5036914;28;20044;-29
2022/06/05 03:30:07;;;;;;;9.98;5.13;;;14.80;99.90;;;;;;5039927;28;20062;-31
2022/06/05 03:32:33;;;;;;;6.97;4.70;;;14.70;99.90;;;;;;5053215;28;20444;-29
2022/06/05 03:34:59;;;;;;;15.57;5.60;;;14.70;99.90;;;;;;5054019;28;20029;-31
2022/06/05 03:37:24;;;;;;;8.48;5.25;;;14.60;99.90;;;;;;5051210;28;20031;-35
2022/06/05 03:39:50;;;;;;;7.95;5.57;;;14.60;99.90;;;;;;5049404;28;20013;-30
2022/06/05 03:42:16;;;;;;;12.65;5.65;;;14.60;99.90;;;;;;5037365;28;20558;-31
2022/06/05 03:44:43;;;;;;;6.25;5.22;;;14.60;99.90;;;;;;5040911;28;20078;-30
2022/06/05 03:47:10;;;;;;;11.85;5.70;;;14.60;99.90;;;;;;5034754;28;20478;-30
2022/06/05 03:49:36;;;;;;;7.17;5.33;;;14.50;99.90;;;;;;5043776;28;20485;-29
2022/06/05 03:52:03;;;;;;;8.95;5.22;;;14.50;99.90;;;;;;5048338;28;20025;-27
2022/06/05 03:54:29;;;;;;;9.10;6.20;;;14.50;99.90;;;;;;5052766;28;20069;-29
2022/06/05 03:56:55;;;;;;;6.25;4.95;;;14.50;99.90;;;;;;5050947;28;20106;-32
2022/06/05 03:59:20;;;;;;;9.10;5.70;;;14.40;99.90;;;;;;5037588;28;20029;-29
2022/06/05 04:01:46;;;;;;;9.18;5.35;;;14.40;99.90;;;;;;5036907;28;20025;-38
2022/06/05 04:04:11;;;;;;;9.00;5.82;;;14.50;99.90;;;;;;5038722;28;20104;-32
2022/06/05 04:06:37;;;;;;;9.85;5.38;;;14.50;99.90;;;;;;5051924;28;20021;-33
2022/06/05 04:09:07;;;;;;;10.88;5.32;;;14.50;99.90;;;;;;5036347;28;20034;-36
2022/06/05 04:11:35;;;;;;;12.00;6.25;;;14.50;99.90;;;;;;5034262;28;20382;-31
2022/06/05 04:14:01;;;;;;;16.95;6.35;;;14.50;99.90;;;;;;5041272;28;20161;-28
2022/06/05 04:16:30;;;;;;;8.35;5.13;;;14.50;99.90;;;;;;5040469;28;20431;-30
2022/06/05 04:18:56;;;;;;;11.55;5.72;;;14.50;99.90;;;;;;5037539;28;20112;-29
2022/06/05 04:21:25;;;;;;;9.10;5.88;;;14.60;99.90;;;;;;5033689;28;20366;-29
2022/06/05 04:23:52;;;;;;;17.25;6.85;;;14.60;99.90;;;;;;5053141;28;20362;-28
2022/06/05 04:26:21;;;;;;;12.27;5.05;;;14.60;99.90;;;;;;5052042;28;20129;-30
2022/06/05 04:28:46;;;;;;;12.75;7.15;;;14.60;99.90;;;;;;5050224;28;20420;-36
2022/06/05 04:31:35;;;;;;;11.98;6.35;;;14.60;99.90;;;;;;5041589;28;20084;-37
2022/06/05 04:34:03;;;;;;;10.18;5.63;;;14.50;99.90;;;;;;5047723;28;20380;-29
2022/06/05 04:36:29;;;;;;;;;;;14.60;99.90;;;;;;5037318;28;20035;-29
2022/06/05 04:38:54;;;;;;;9.02;5.60;;;14.60;99.90;;;;;;5042601;28;20377;-30
2022/06/05 04:41:20;;;;;;;12.02;6.30;;;14.50;99.90;;;;;;5046609;28;20021;-32
2022/06/05 04:43:47;;;;;;;10.23;6.00;;;14.60;99.90;;;;;;5041172;28;20029;-32
2022/06/05 04:46:13;;;;;;;14.88;6.22;;;14.60;99.90;;;;;;5038548;28;20124;-27
2022/06/05 04:48:39;;;;;;;9.10;5.50;;;14.50;99.90;;;;;;5033848;28;20510;-30
2022/06/05 04:51:06;;;;;;;14.57;6.65;;;14.60;99.90;;;;;;5052079;28;20029;-32
2022/06/05 04:53:32;;;;;;;8.85;6.00;;;14.60;99.90;;;;;;5053425;28;20094;-32
2022/06/05 04:56:01;;;;;;;14.43;6.18;;;14.60;99.90;;;;;;5052382;28;20048;-32
2022/06/05 04:58:27;;;;;;;14.10;5.97;;;14.60;99.90;;;;;;5042111;28;20493;-32
2022/06/05 05:00:52;;;;;;;11.75;6.38;;;14.60;99.90;;;;;;5048386;28;20059;-31
2022/06/05 05:03:18;;;;;;;12.77;7.20;;;14.60;99.90;;;;;;5040949;28;20048;-31
2022/06/05 05:05:43;;;;;;;11.95;6.38;;;14.60;99.90;;;;;;5042222;28;20041;-30
2022/06/05 05:08:09;;;;;;;9.13;6.13;;;14.60;99.90;;;;;;5048669;28;20029;-30
2022/06/05 05:10:35;;;;;;;8.88;5.45;;;14.60;99.90;;;;;;5040188;28;20468;-45
2022/06/05 05:13:00;;;;;;;9.43;5.75;;;14.60;99.90;;;;;;5046548;28;20021;-34
2022/06/05 05:15:26;;;;;;;8.43;6.20;;;14.60;99.90;;;;;;5045786;28;20025;-37
2022/06/05 05:17:51;;;;;;;9.02;6.45;;;14.60;99.90;;;;;;5041416;28;20037;-37
2022/06/05 05:20:17;;;;;;;8.88;5.78;;;14.60;99.90;;;;;;5049224;28;20025;-31
2022/06/05 05:22:43;;;;;;;11.02;7.00;;;14.60;99.90;;;;;;5032580;28;20053;-29
2022/06/05 05:25:10;;;;;;;17.73;6.75;;;14.60;99.90;;;;;;5033080;28;20025;-48
2022/06/05 05:27:37;;;;;;;11.10;6.05;;;14.60;99.90;;;;;;5051236;28;20191;-29
2022/06/05 05:30:05;;;;;;;11.38;5.78;;;14.60;99.90;;;;;;5049005;28;20035;-27
2022/06/05 05:32:31;;;;;;;13.20;6.40;;;14.60;99.90;;;;;;5048723;28;20036;-39
2022/06/05 05:34:57;;;;;;;13.75;6.07;;;14.60;99.90;;;;;;5045684;28;20056;-37
2022/06/05 05:37:23;;;;;;;16.27;7.10;;;14.70;99.90;;;;;;5048233;28;20056;-36
2022/06/05 05:42:32;;;;;;;19.00;7.07;;;14.60;99.90;;;;;;5038630;28;20041;-73
2022/06/05 05:44:59;;;;;;;11.50;6.47;;;14.50;99.90;;;;;;5032414;28;20025;-38
2022/06/05 05:47:27;;;;;;;14.85;7.45;;;14.50;99.90;;;;;;5040072;28;20500;-37
2022/06/05 05:49:56;;;;;;;11.23;7.30;;;14.50;99.90;;;;;;5032808;28;20071;-37
2022/06/05 05:52:22;;;;;;;15.43;6.82;;;14.50;99.90;;;;;;5034720;28;20033;-37
2022/06/05 05:54:48;;;;;;;12.30;6.93;;;14.50;99.90;;;;;;5040799;28;20476;-37
2022/06/05 05:57:14;;;;;;;14.25;7.38;;;14.40;99.90;;;;;;5047384;28;20029;-36
2022/06/05 05:59:40;;;;;;;10.60;6.57;;;14.50;99.90;;;;;;5043730;28;20022;-42
2022/06/05 06:02:11;;;;;;;15.70;7.82;;;14.50;99.90;;;;;;5047344;28;20034;-37
2022/06/05 06:04:41;;;;;;;10.77;5.97;;;14.60;99.90;;;;;;5032996;28;20021;-38
2022/06/05 06:07:07;;;;;;;11.27;6.65;;;14.60;99.90;;;;;;5034655;28;20111;-38
2022/06/05 06:09:51;;;;;;;14.27;7.15;;;14.60;99.90;;;;;;5038655;28;20159;-29
2022/06/05 06:12:16;;;;;;;14.73;7.00;;;14.60;99.90;;;;;;5045349;28;20596;-33
2022/06/05 06:14:42;;;;;;;12.88;7.20;;;14.60;99.90;;;;;;5039106;28;20112;-28
2022/06/05 06:17:08;;;;;;;19.42;7.03;;;14.70;99.90;;;;;;5041260;28;20053;-27
2022/06/05 06:19:34;;;;;;;15.32;6.93;;;14.70;99.90;;;;;;5043766;28;20076;-29
2022/06/05 06:21:59;;;;;;;14.15;6.68;;;14.80;99.90;;;;;;5043656;28;20046;-31
2022/06/05 06:24:25;;;;;;;17.83;7.15;;;14.90;99.90;;;;;;5031904;28;20071;-28
2022/06/05 06:26:50;;;;;;;11.48;6.68;;;14.90;99.90;;;;;;5044353;28;20014;-31
2022/06/05 06:29:16;;;;;;;11.40;7.38;;;14.90;99.90;;;;;;5053590;28;20021;-27
2022/06/05 06:31:44;;;;;;;11.38;6.75;;;14.90;99.90;;;;;;5045309;28;20056;-30
2022/06/05 06:34:10;;;;;;;12.40;7.15;;;14.90;99.90;;;;;;5049127;28;20558;-28
2022/06/05 06:36:36;;;;;;;13.57;6.63;;;15.00;99.90;;;;;;5047759;28;20022;-30
2022/06/05 06:39:02;;;;;;;13.90;6.47;;;15.10;99.90;;;;;;5041778;28;20079;-35
2022/06/05 06:41:27;;;;;;;9.48;6.47;;;15.20;99.90;;;;;;5044691;28;20040;-36
2022/06/05 06:43:53;;;;;;;10.63;6.47;;;15.20;99.90;;;;;;5054914;28;20473;-36
2022/06/05 06:46:20;;;;;;;11.52;6.55;;;15.30;99.90;;;;;;5052721;28;20025;-68
2022/06/05 06:48:46;;;;;;;16.02;7.10;;;15.30;99.90;;;;;;5047399;28;20033;-38
2022/06/05 06:51:13;;;;;;;10.65;6.25;;;15.30;99.90;;;;;;5045780;28;20495;-38
2022/06/05 06:53:40;;;;;;;10.18;6.80;;;15.40;99.90;;;;;;5044806;28;20032;-35
2022/06/05 06:56:12;;;;;;;10.70;6.60;;;15.50;99.90;;;;;;5053449;28;20639;-36
2022/06/05 06:58:39;;;;;;;10.30;7.15;;;15.50;99.90;;;;;;5036865;28;20112;-35
2022/06/05 07:01:05;;;;;;;12.18;7.45;;;15.60;99.90;;;;;;5040573;28;20163;-37
2022/06/05 07:03:33;;;;;;;10.30;6.72;;;15.60;99.90;;;;;;5046747;28;20112;-37
2022/06/05 07:06:00;;;;;;;10.45;6.32;;;15.70;99.90;;;;;;5039998;28;20359;-39
2022/06/05 07:08:26;;;;;;;20.02;7.47;;;15.80;99.90;;;;;;5046543;28;20396;-37
2022/06/05 07:10:51;;;;;;;12.13;7.13;;;15.80;99.90;;;;;;5042510;28;20096;-39
2022/06/05 07:13:17;;;;;;;11.35;6.90;;;15.90;99.90;;;;;;5040777;28;20025;-38
2022/06/05 07:15:43;;;;;;;19.33;7.47;;;15.90;99.90;;;;;;5035048;28;20053;-38
2022/06/05 07:18:09;;;;;;;16.17;6.85;;;16.00;99.90;;;;;;5049812;28;20509;-37
2022/06/05 07:20:38;;;;;;;13.30;7.43;;;16.00;99.90;;;;;;5054343;28;20039;-38
2022/06/05 07:23:05;;;;;;;9.60;6.72;;;16.00;99.90;;;;;;5042290;28;20555;-37
2022/06/05 07:25:32;;;;;;;10.00;6.38;;;16.10;99.90;;;;;;5049789;28;20025;-37
2022/06/05 07:27:58;;;;;;;8.83;5.80;;;16.10;99.90;;;;;;5054163;28;20549;-37
2022/06/05 07:30:24;;;;;;;11.60;6.72;;;16.30;99.90;;;;;;5053285;28;20033;-37
2022/06/05 07:32:50;;;;;;;10.73;6.80;;;16.40;99.90;;;;;;5047991;28;20044;-36
2022/06/05 07:35:17;;;;;;;12.43;6.88;;;16.50;99.90;;;;;;5041159;28;20031;-31
2022/06/05 07:37:42;;;;;;;11.00;6.15;;;16.60;99.90;;;;;;5039415;28;20075;-37
2022/06/05 07:40:09;;;;;;;13.18;6.50;;;16.80;99.90;;;;;;5034636;28;20029;-38
2022/06/05 07:42:39;;;;;;;14.00;6.43;;;17.00;99.90;;;;;;5035465;28;20107;-34
2022/06/05 07:45:07;;;;;;;8.07;5.25;;;17.40;99.90;;;;;;5033900;28;20025;-35
2022/06/05 07:47:32;;;;;;;10.95;6.20;;;17.60;99.90;;;;;;5033702;28;20033;-47
2022/06/05 07:49:58;;;;;;;11.13;5.28;;;17.90;99.90;;;;;;5034148;28;20026;-36
2022/06/05 07:55:10;;;;;;;14.00;6.32;;;18.30;99.90;;;;;;5052263;28;20500;-38
2022/06/05 07:57:37;;;;;;;9.00;5.57;;;18.50;99.90;;;;;;5034134;28;20026;-61
2022/06/05 08:00:07;;;;;;;8.43;5.65;;;18.70;99.90;;;;;;5036748;28;20151;-31
2022/06/05 08:02:34;;;;;;;8.25;4.97;;;18.90;99.90;;;;;;5034679;28;20474;-34
2022/06/05 08:05:02;;;;;;;10.93;5.82;;;19.00;99.90;;;;;;5043875;28;20405;-33
2022/06/05 08:07:29;;;;;;;8.60;4.88;;;19.10;99.90;;;;;;5042131;28;20513;-35
2022/06/05 08:09:55;;;;;;;13.82;5.15;;;19.20;99.90;;;;;;5038084;28;20029;-28
2022/06/05 08:12:23;;;;;;;10.68;6.07;;;19.40;99.90;;;;;;5042164;28;20039;-29
2022/06/05 08:14:50;;;;;;;8.95;6.25;;;19.50;99.90;;;;;;5041954;28;20083;-34
2022/06/05 08:17:20;;;;;;;7.35;5.10;;;19.60;99.90;;;;;;5053087;28;20092;-34
2022/06/05 08:19:46;;;;;;;9.35;4.93;;;19.80;99.90;;;;;;5034595;28;20030;-28
2022/06/05 08:22:14;;;;;;;9.65;5.22;;;20.00;99.90;;;;;;5036137;28;20481;-29
2022/06/05 08:24:40;;;;;;;6.43;5.30;;;20.20;99.90;;;;;;5043939;28;20112;-32
2022/06/05 08:27:08;;;;;;;8.82;5.78;;;20.30;99.90;;;;;;5053932;28;20485;-38
2022/06/05 08:29:33;;;;;;;;;;;20.30;99.90;;;;;;5042593;28;20520;-37
2022/06/05 08:31:59;;;;;;;8.82;5.32;;;20.50;99.90;;;;;;5034716;28;19916;-35
2022/06/05 08:34:24;;;;;;;6.63;4.97;;;20.80;99.90;;;;;;5032526;28;20033;-30
2022/06/05 08:41:26;;;;;;;7.45;5.38;;;20.90;99.90;;;;;;5037426;28;20033;-31
2022/06/05 08:42:31;;;;;;;7.00;4.75;;;21.50;99.90;;;;;;5040223;28;20037;-31
2022/06/05 08:45:30;;;;;;;7.20;4.88;;;21.70;99.90;;;;;;5037483;28;20037;-30
2022/06/05 08:48:14;;;;;;;6.47;4.65;;;21.90;99.90;;;;;;5032213;28;20519;-33
2022/06/05 08:50:46;;;;;;;10.02;5.78;;;22.40;99.90;;;;;;5033046;28;20541;-34
2022/06/05 08:53:14;;;;;;;6.53;4.75;;;22.30;99.90;;;;;;5033672;28;20080;-28
2022/06/05 08:55:43;;;;;;;8.27;5.13;;;22.30;99.90;;;;;;5038980;28;20497;-31
2022/06/05 08:58:11;;;;;;;6.50;4.03;;;22.50;99.90;;;;;;5050131;28;20082;-29
2022/06/05 09:00:38;;;;;;;4.32;3.92;;;22.60;99.90;;;;;;5051708;28;20033;-32
2022/06/05 09:03:15;;;;;;;7.40;4.00;;;22.70;99.90;;;;;;5039658;28;20029;-31
2022/06/05 09:05:45;;;;;;;4.20;3.72;;;22.90;99.90;;;;;;5044902;28;20385;-33
2022/06/05 09:08:25;;;;;;;6.63;4.50;;;23.00;99.90;;;;;;5053500;28;20477;-32
2022/06/05 09:10:55;;;;;;;5.10;4.30;;;23.30;99.90;;;;;;5050826;28;20037;-29
2022/06/05 09:13:35;;;;;;;5.22;4.25;;;23.40;99.90;;;;;;5034177;28;20079;-29
2022/06/05 09:16:04;;;;;;;5.28;4.43;;;23.50;99.90;;;;;;5032897;28;20040;-29
2022/06/05 09:18:43;;;;;;;8.65;4.93;;;23.20;99.90;;;;;;5049635;28;20037;-32
2022/06/05 09:21:25;;;;;;;6.57;4.30;;;23.00;99.90;;;;;;5052281;28;20408;-33
2022/06/05 09:24:06;;;;;;;7.13;4.35;;;22.80;99.90;;;;;;5034356;28;20026;-35
2022/06/05 09:26:43;;;;;;;9.40;4.70;;;22.80;99.90;;;;;;5036382;28;20029;-32
2022/06/05 09:29:49;;;;;;;8.90;4.33;;;22.80;99.90;;;;;;5053353;28;20565;-29
2022/06/05 09:32:39;;;;;;;4.75;4.25;;;22.70;99.90;;;;;;5038672;28;20523;-32
2022/06/05 09:35:18;;;;;;;8.02;4.90;;;22.70;99.90;;;;;;5032659;28;20029;-33
2022/06/05 09:37:59;;;;;;;8.80;4.47;;;22.60;99.90;;;;;;5035643;28;20493;-32
2022/06/05 09:40:35;;;;;;;6.70;4.97;;;22.50;99.90;;;;;;5047456;28;20033;-31
2022/06/05 09:43:21;;;;;;;4.35;3.95;;;22.60;99.90;;;;;;5033031;28;20489;-33
2022/06/05 09:45:54;;;;;;;5.50;4.47;;;22.50;99.90;;;;;;5043423;28;20116;-34
2022/06/05 09:48:57;;;;;;;5.28;4.40;;;22.60;99.90;;;;;;5045910;28;20025;-31
2022/06/05 09:51:22;;;;;;;4.60;4.15;;;22.50;99.90;;;;;;5035574;28;20095;-31
2022/06/05 09:54:07;;;;;;;5.93;4.72;;;22.50;99.90;;;;;;5042712;28;20030;-30
2022/06/05 10:00:03;;;;;;;6.82;4.78;;;22.40;99.90;;;;;;5033835;28;20072;-31
2022/06/05 10:02:30;;;;;;;8.98;4.53;;;22.40;99.90;;;;;;5035045;28;20036;-28
2022/06/05 10:04:56;;;;;;;4.95;4.45;;;22.30;99.90;;;;;;5049275;28;20384;-35
2022/06/05 10:07:33;;;;;;;5.68;4.70;;;22.20;99.90;;;;;;5041776;28;20091;-31
2022/06/05 10:10:04;;;;;;;5.85;4.85;;;22.30;99.90;;;;;;5036633;28;20044;-32
2022/06/05 10:12:45;;;;;;;5.28;4.30;;;22.40;99.90;;;;;;5040571;28;20469;-38
2022/06/05 10:15:22;;;;;;;6.32;5.05;;;22.40;99.90;;;;;;5040878;28;20041;-35
2022/06/05 10:17:53;;;;;;;8.43;4.28;;;22.40;99.90;;;;;;5036216;28;20053;-32
2022/06/05 10:20:37;;;;;;;7.40;4.55;;;22.40;99.90;;;;;;5036391;28;20543;-30
2022/06/05 10:23:26;;;;;;;5.85;5.00;;;22.50;99.90;;;;;;5036262;28;20025;-32
2022/06/05 10:26:11;;;;;;;6.15;4.65;;;22.50;99.90;;;;;;5041686;28;20025;-36
2022/06/05 10:28:40;;;;;;;8.88;4.82;;;22.40;99.90;;;;;;5037164;28;20029;-36
2022/06/05 10:31:19;;;;;;;5.50;4.15;;;22.50;99.90;;;;;;5042659;28;20036;-32
2022/06/05 10:33:56;;;;;;;7.15;4.75;;;22.50;99.90;;;;;;5050756;28;20033;-30
2022/06/05 10:36:50;;;;;;;9.02;4.38;;;22.60;99.90;;;;;;5054612;28;20530;-35
2022/06/05 10:39:35;;;;;;;7.15;4.55;;;22.60;99.90;;;;;;5048653;28;20045;-32
2022/06/05 10:42:25;;;;;;;5.97;5.22;;;22.50;99.90;;;;;;5055932;28;20066;-32
2022/06/05 10:45:15;;;;;;;7.30;4.97;;;22.70;99.90;;;;;;5041124;28;20062;-31
2022/06/05 10:47:47;;;;;;;7.30;4.93;;;22.70;99.90;;;;;;5047647;28;20036;-39
2022/06/05 10:50:27;;;;;;;12.05;4.43;;;22.70;99.90;;;;;;5052994;28;20025;-38
2022/06/05 10:53:12;;;;;;;7.38;5.57;;;22.70;99.90;;;;;;5047099;28;20087;-39
2022/06/05 10:56:13;;;;;;;7.15;4.63;;;22.80;99.90;;;;;;5038878;28;20025;-39
2022/06/05 10:58:59;;;;;;;7.07;5.50;;;22.90;99.90;;;;;;5050844;28;20029;-37
2022/06/05 11:01:47;;;;;;;8.68;4.50;;;22.80;99.90;;;;;;5041390;28;20029;-59
2022/06/05 11:04:22;;;;;;;7.82;5.32;;;22.70;99.90;;;;;;5042749;28;20087;-39
2022/06/05 11:07:13;;;;;;;10.50;5.20;;;22.70;99.90;;;;;;5033938;28;20030;-35
2022/06/05 11:09:55;;;;;;;7.15;5.30;;;22.70;99.90;;;;;;5045754;28;20033;-29
2022/06/05 11:15:59;;;;;;;6.72;5.05;;;22.70;99.90;;;;;;5041243;28;20036;-32
2022/06/05 11:18:38;;;;;;;4.85;4.30;;;22.70;99.90;;;;;;5041867;28;20041;-33
2022/06/05 11:21:06;;;;;;;9.05;4.57;;;22.60;99.90;;;;;;5054304;28;20021;-34
2022/06/05 11:23:40;;;;;;;;;;;22.60;99.90;;;;;;5043840;28;20033;-34
2022/06/05 11:26:13;;;;;;;6.30;4.95;;;22.50;99.90;;;;;;5034597;28;19909;-32
2022/06/05 11:28:50;;;;;;;6.80;4.82;;;22.40;99.90;;;;;;5034152;28;20540;-29
2022/06/05 11:31:38;;;;;;;8.40;4.80;;;22.30;99.90;;;;;;5043504;28;20099;-40
2022/06/05 11:34:40;;;;;;;7.88;4.88;;;22.20;99.90;;;;;;5038976;28;20041;-32
2022/06/05 11:37:37;;;;;;;7.50;5.15;;;22.00;99.90;;;;;;5037903;28;21309;-36
2022/06/05 11:40:40;;;;;;;5.40;4.90;;;22.10;99.90;;;;;;5034564;28;20041;-34
2022/06/05 11:43:32;;;;;;;9.52;5.28;;;22.00;99.90;;;;;;5038227;28;20025;-30
2022/06/05 11:46:00;;;;;;;8.00;5.20;;;22.00;99.90;;;;;;5045999;28;20029;-38
2022/06/05 11:48:38;;;;;;;7.55;5.10;;;22.10;99.90;;;;;;5036866;28;20501;-35
2022/06/05 11:51:43;;;;;;;6.63;4.82;;;22.10;99.90;;;;;;5034714;28;20462;-34
2022/06/05 11:54:37;;;;;;;6.90;5.85;;;22.00;99.90;;;;;;5032277;28;20426;-35
2022/06/05 11:57:12;;;;;;;6.63;5.75;;;22.00;99.90;;;;;;5045380;28;20060;-31
2022/06/05 11:59:58;;;;;;;7.50;5.50;;;22.00;99.90;;;;;;5050380;28;20446;-36
2022/06/05 12:02:54;;;;;;;6.25;5.05;;;22.00;99.90;;;;;;5047701;28;20090;-37
2022/06/05 12:05:49;;;;;;;6.80;5.05;;;22.00;99.90;;;;;;5049561;28;20052;-38
2022/06/05 12:08:31;;;;;;;7.55;4.90;;;22.00;99.90;;;;;;5051148;28;20039;-38
2022/06/05 12:11:12;;;;;;;9.65;6.05;;;22.00;99.90;;;;;;5053911;28;20493;-39
2022/06/05 12:13:52;;;;;;;8.07;5.07;;;21.90;99.90;;;;;;5049166;28;20580;-37
2022/06/05 12:16:50;;;;;;;11.55;5.93;;;21.70;99.90;;;;;;5036043;28;20041;-37
2022/06/05 12:19:38;;;;;;;6.40;4.97;;;21.70;99.90;;;;;;5034575;28;20037;-36
2022/06/05 12:22:19;;;;;;;5.93;5.32;;;21.70;99.90;;;;;;5044843;28;20076;-38
2022/06/05 12:24:59;;;;;;;6.93;5.40;;;21.60;99.90;;;;;;5050237;28;20462;-38
2022/06/05 12:27:39;;;;;;;7.25;5.80;;;21.60;99.90;;;;;;5043412;28;20112;-38
2022/06/05 12:30:13;;;;;;;7.55;5.25;;;21.60;99.90;;;;;;5048247;28;20029;-38
2022/06/05 12:32:54;;;;;;;6.65;4.95;;;21.60;99.90;;;;;;5050431;28;20056;-39
2022/06/05 12:35:37;;;;;;;6.25;5.65;;;21.60;99.90;;;;;;5050428;28;20032;-38
2022/06/05 12:38:05;;;;;;;8.25;6.13;;;21.50;99.90;;;;;;5049834;28;20047;-38
2022/06/05 12:40:41;;;;;;;8.40;5.50;;;21.40;99.90;;;;;;5041802;28;20034;-39
2022/06/05 12:43:18;;;;;;;6.07;5.47;;;21.40;99.90;;;;;;5049834;28;20051;-37
2022/06/05 12:45:45;;;;;;;;;;;21.30;99.90;;;;;;5052793;28;20159;-38
2022/06/05 12:48:22;;;;;;;6.18;5.40;;;21.20;99.90;;;;;;5034787;28;19916;-38
2022/06/05 12:51:01;;;;;;;6.40;5.78;;;21.20;99.90;;;;;;5044684;28;20033;-37
2022/06/05 12:54:01;;;;;;;9.88;5.43;;;21.20;99.90;;;;;;5033295;28;20030;-38
2022/06/05 12:56:42;;;;;;;8.73;6.72;;;21.20;99.90;;;;;;5035522;28;20044;-38
2022/06/05 12:59:45;;;;;;;11.73;7.13;;;21.10;99.90;;;;;;5053625;28;20025;-38
2022/06/05 13:02:38;;;;;;;8.43;6.53;;;21.10;99.90;;;;;;5031129;28;20107;-39
2022/06/05 13:05:15;;;;;;;10.65;6.13;;;21.10;99.90;;;;;;5040970;28;20025;-37
2022/06/05 13:08:07;;;;;;;8.07;6.15;;;21.10;99.90;;;;;;5046403;28;20501;-38
2022/06/05 13:10:45;;;;;;;9.73;6.70;;;21.10;99.90;;;;;;5051407;28;20067;-37
2022/06/05 13:13:17;;;;;;;8.80;5.95;;;21.10;99.90;;;;;;5048033;28;20033;-40
2022/06/05 13:15:51;;;;;;;6.85;6.15;;;21.10;99.90;;;;;;5034002;28;20030;-32
2022/06/05 13:18:39;;;;;;;8.07;7.18;;;21.10;99.90;;;;;;5050004;28;20496;-31
2022/06/05 13:21:34;;;;;;;7.68;6.05;;;21.10;99.90;;;;;;5051029;28;20060;-32
2022/06/05 13:24:29;;;;;;;10.63;7.75;;;21.00;99.90;;;;;;5051777;28;20492;-33
2022/06/05 13:27:01;;;;;;;8.70;7.35;;;21.00;99.90;;;;;;5045350;28;20040;-38
2022/06/05 13:29:51;;;;;;;8.00;6.43;;;21.00;99.90;;;;;;5033121;28;20480;-38
2022/06/05 13:32:23;;;;;;;7.90;6.20;;;21.00;99.90;;;;;;5036525;28;20021;-31
2022/06/05 13:35:13;;;;;;;7.50;6.78;;;20.90;99.90;;;;;;5049117;28;20120;-33
2022/06/05 13:37:52;;;;;;;13.02;7.45;;;20.90;99.90;;;;;;5051710;28;20421;-31
2022/06/05 13:40:48;;;;;;;16.70;9.15;;;20.80;99.90;;;;;;5056441;28;20103;-31
2022/06/05 13:43:30;;;;;;;14.05;9.52;;;20.70;99.90;;;;;;5055074;28;20033;-31